createdAt,value
2018-05-02T00:00:33.349Z,0
2018-05-02T00:01:13.867Z,0
2018-05-02T00:01:54.395Z,0
2018-05-02T00:02:34.909Z,0
2018-05-02T00:03:15.431Z,0
2018-05-02T00:03:55.959Z,0
2018-05-02T00:04:36.466Z,0
2018-05-02T00:05:16.980Z,0
2018-05-02T00:05:57.508Z,0
2018-05-02T00:06:38.007Z,0
2018-05-02T00:07:18.542Z,0
2018-05-02T00:07:59.058Z,0
2018-05-02T00:08:39.572Z,0
2018-05-02T00:09:20.079Z,0
2018-05-02T00:10:00.607Z,0
2018-05-02T00:10:41.122Z,0
2018-05-02T00:11:21.639Z,0
2018-05-02T00:12:02.175Z,0
2018-05-02T00:12:42.686Z,0
2018-05-02T00:13:23.207Z,0
2018-05-02T00:14:03.725Z,0
2018-05-02T00:14:44.238Z,0
2018-05-02T00:15:24.746Z,0
2018-05-02T00:16:05.267Z,0
2018-05-02T00:16:45.787Z,0
2018-05-02T00:17:26.286Z,0
2018-05-02T00:18:06.890Z,0
2018-05-02T00:18:47.342Z,0
2018-05-02T00:19:27.851Z,0
2018-05-02T00:20:08.381Z,0
2018-05-02T00:20:48.911Z,0
2018-05-02T00:21:29.425Z,0
2018-05-02T00:22:09.935Z,0
2018-05-02T00:22:50.467Z,0
2018-05-02T00:23:30.988Z,0
2018-05-02T00:24:11.498Z,0
2018-05-02T00:24:52.022Z,0
2018-05-02T00:25:32.534Z,0
2018-05-02T00:26:13.078Z,0
2018-05-02T00:26:53.546Z,0
2018-05-02T00:27:34.062Z,0
2018-05-02T00:28:14.584Z,0
2018-05-02T00:28:55.110Z,0
2018-05-02T00:29:35.622Z,0
2018-05-02T00:30:16.139Z,0
2018-05-02T00:30:56.666Z,0
2018-05-02T00:31:37.194Z,0
2018-05-02T00:32:17.713Z,0
2018-05-02T00:32:58.234Z,0
2018-05-02T00:33:38.755Z,0
2018-05-02T00:34:19.272Z,0
2018-05-02T00:34:59.782Z,0
2018-05-02T00:35:40.304Z,0
2018-05-02T00:36:20.818Z,0
2018-05-02T00:37:01.338Z,0
2018-05-02T00:37:41.856Z,0
2018-05-02T00:38:22.368Z,0
2018-05-02T00:39:02.876Z,0
2018-05-02T00:39:43.379Z,0
2018-05-02T00:40:23.902Z,0
2018-05-02T00:41:04.427Z,0
2018-05-02T00:41:44.948Z,0
2018-05-02T00:42:25.459Z,0
2018-05-02T00:43:05.985Z,0
2018-05-02T00:43:46.497Z,0
2018-05-02T00:44:27.010Z,0
2018-05-02T00:45:07.530Z,0
2018-05-02T00:45:48.050Z,0
2018-05-02T00:46:28.577Z,0
2018-05-02T00:47:09.092Z,0
2018-05-02T00:47:49.606Z,0
2018-05-02T00:48:30.115Z,0
2018-05-02T00:49:10.624Z,0
2018-05-02T00:49:51.137Z,0
2018-05-02T00:50:31.712Z,0
2018-05-02T00:51:12.236Z,0
2018-05-02T00:51:52.754Z,0
2018-05-02T00:52:33.270Z,0
2018-05-02T00:53:13.796Z,0
2018-05-02T00:53:54.320Z,0
2018-05-02T00:54:34.841Z,0
2018-05-02T00:55:15.361Z,0
2018-05-02T00:55:55.868Z,0
2018-05-02T00:58:36.320Z,0
2018-05-02T00:59:16.829Z,0
2018-05-02T00:59:57.341Z,0
2018-05-02T01:00:37.880Z,0
2018-05-02T01:01:18.408Z,0
2018-05-02T01:01:58.932Z,0
2018-05-02T01:02:39.443Z,0
2018-05-02T01:03:19.950Z,0
2018-05-02T01:04:00.472Z,0
2018-05-02T01:04:40.983Z,0
2018-05-02T01:05:21.513Z,0
2018-05-02T01:06:02.016Z,0
2018-05-02T01:06:42.534Z,0
2018-05-02T01:07:23.059Z,0
2018-05-02T01:08:03.560Z,0
2018-05-02T01:08:44.071Z,0
2018-05-02T01:09:24.579Z,0
2018-05-02T01:10:05.095Z,0
2018-05-02T01:10:45.602Z,0
2018-05-02T01:11:26.116Z,0
2018-05-02T01:12:06.628Z,0
2018-05-02T01:12:47.150Z,0
2018-05-02T01:13:27.681Z,0
2018-05-02T01:14:08.202Z,0
2018-05-02T01:14:48.717Z,0
2018-05-02T01:15:29.240Z,0
2018-05-02T01:16:09.767Z,0
2018-05-02T01:16:50.271Z,0
2018-05-02T01:17:30.782Z,0
2018-05-02T01:18:11.294Z,0
2018-05-02T01:18:51.806Z,0
2018-05-02T01:19:32.289Z,0
2018-05-02T01:20:12.807Z,0
2018-05-02T01:20:53.327Z,0
2018-05-02T01:21:33.913Z,0
2018-05-02T01:22:14.421Z,0
2018-05-02T01:22:54.934Z,0
2018-05-02T01:23:35.477Z,0
2018-05-02T01:24:15.998Z,0
2018-05-02T01:24:56.516Z,0
2018-05-02T01:25:37.036Z,0
2018-05-02T01:26:17.561Z,0
2018-05-02T01:26:58.072Z,0
2018-05-02T01:27:38.611Z,0
2018-05-02T01:28:19.121Z,0
2018-05-02T01:28:59.637Z,0
2018-05-02T01:29:40.158Z,0
2018-05-02T01:30:20.669Z,0
2018-05-02T01:31:01.185Z,0
2018-05-02T01:31:41.698Z,0
2018-05-02T01:32:22.221Z,0
2018-05-02T01:33:02.726Z,0
2018-05-02T01:33:43.246Z,0
2018-05-02T01:34:23.768Z,0
2018-05-02T01:35:04.278Z,0
2018-05-02T01:35:44.795Z,0
2018-05-02T01:36:25.312Z,0
2018-05-02T01:37:05.834Z,0
2018-05-02T01:37:46.352Z,0
2018-05-02T01:38:26.860Z,0
2018-05-02T01:39:07.377Z,0
2018-05-02T01:39:47.895Z,0
2018-05-02T01:40:28.403Z,0
2018-05-02T01:41:08.913Z,0
2018-05-02T01:41:49.427Z,0
2018-05-02T01:42:30.026Z,0
2018-05-02T01:43:10.565Z,0
2018-05-02T01:43:51.077Z,0
2018-05-02T01:44:31.612Z,0
2018-05-02T01:45:12.121Z,0
2018-05-02T01:45:52.629Z,0
2018-05-02T01:46:33.145Z,0
2018-05-02T01:47:13.644Z,0
2018-05-02T01:47:54.159Z,0
2018-05-02T01:48:34.681Z,0
2018-05-02T01:49:15.202Z,0
2018-05-02T01:49:55.732Z,0
2018-05-02T01:50:36.275Z,0
2018-05-02T01:51:16.782Z,0
2018-05-02T01:51:57.298Z,0
2018-05-02T01:52:37.811Z,0
2018-05-02T01:53:18.331Z,0
2018-05-02T01:53:58.848Z,0
2018-05-02T01:54:39.376Z,0
2018-05-02T01:55:19.888Z,0
2018-05-02T01:56:00.410Z,0
2018-05-02T01:56:40.929Z,0
2018-05-02T01:57:21.444Z,0
2018-05-02T01:58:01.963Z,0
2018-05-02T01:58:42.485Z,0
2018-05-02T01:59:22.996Z,0
2018-05-02T02:00:03.521Z,0
2018-05-02T02:00:44.031Z,0
2018-05-02T02:01:24.542Z,0
2018-05-02T02:02:05.066Z,0
2018-05-02T02:02:45.581Z,0
2018-05-02T02:05:13.558Z,0
2018-05-02T02:05:54.061Z,0
2018-05-02T02:06:34.589Z,0
2018-05-02T02:07:15.104Z,0
2018-05-02T02:07:55.623Z,0
2018-05-02T02:08:36.138Z,0
2018-05-02T02:09:16.662Z,0
2018-05-02T02:09:57.179Z,0
2018-05-02T02:10:37.685Z,0
2018-05-02T02:11:18.207Z,0
2018-05-02T02:11:58.753Z,0
2018-05-02T02:12:39.274Z,0
2018-05-02T02:13:19.785Z,0
2018-05-02T02:14:00.309Z,0
2018-05-02T02:14:40.817Z,0
2018-05-02T02:15:21.337Z,0
2018-05-02T02:16:01.859Z,0
2018-05-02T02:16:42.367Z,0
2018-05-02T02:17:22.893Z,0
2018-05-02T02:18:03.413Z,0
2018-05-02T02:18:43.935Z,0
2018-05-02T02:19:24.452Z,0
2018-05-02T02:20:04.964Z,0
2018-05-02T02:20:45.484Z,0
2018-05-02T02:21:25.997Z,0
2018-05-02T02:22:06.527Z,0
2018-05-02T02:22:47.044Z,0
2018-05-02T02:23:27.555Z,0
2018-05-02T02:24:08.068Z,0
2018-05-02T02:24:48.586Z,0
2018-05-02T02:25:29.108Z,0
2018-05-02T02:26:09.628Z,0
2018-05-02T02:26:50.155Z,0
2018-05-02T02:27:30.665Z,0
2018-05-02T02:28:11.162Z,0
2018-05-02T02:28:51.673Z,0
2018-05-02T02:29:32.186Z,0
2018-05-02T02:30:12.701Z,0
2018-05-02T02:30:53.225Z,0
2018-05-02T02:31:33.740Z,0
2018-05-02T02:32:14.262Z,0
2018-05-02T02:32:54.809Z,0
2018-05-02T02:33:35.317Z,0
2018-05-02T02:34:15.833Z,0
2018-05-02T02:34:56.342Z,0
2018-05-02T02:35:36.853Z,0
2018-05-02T02:36:17.351Z,0
2018-05-02T02:36:57.868Z,0
2018-05-02T02:37:38.384Z,0
2018-05-02T02:38:18.903Z,0
2018-05-02T02:38:59.428Z,0
2018-05-02T02:39:39.944Z,0
2018-05-02T02:40:20.457Z,0
2018-05-02T02:41:00.993Z,0
2018-05-02T02:41:41.502Z,0
2018-05-02T02:42:22.025Z,0
2018-05-02T02:43:02.537Z,0
2018-05-02T02:43:43.058Z,0
2018-05-02T02:44:23.597Z,0
2018-05-02T02:45:04.100Z,0
2018-05-02T02:45:44.623Z,0
2018-05-02T02:46:25.117Z,0
2018-05-02T02:47:05.632Z,0
2018-05-02T02:47:46.155Z,0
2018-05-02T02:48:26.666Z,0
2018-05-02T02:49:07.184Z,0
2018-05-02T02:49:47.679Z,0
2018-05-02T02:50:28.196Z,0
2018-05-02T02:51:08.696Z,0
2018-05-02T02:51:49.216Z,0
2018-05-02T02:52:29.749Z,0
2018-05-02T02:53:10.246Z,0
2018-05-02T02:53:50.753Z,0
2018-05-02T02:54:31.265Z,0
2018-05-02T02:55:11.831Z,0
2018-05-02T02:55:52.329Z,0
2018-05-02T02:56:32.802Z,0
2018-05-02T02:57:13.320Z,0
2018-05-02T02:57:53.855Z,0
2018-05-02T02:58:34.332Z,0
2018-05-02T02:59:14.855Z,0
2018-05-02T02:59:55.362Z,0
2018-05-02T03:00:35.882Z,0
2018-05-02T03:01:16.399Z,0
2018-05-02T03:01:56.906Z,0
2018-05-02T03:02:37.419Z,0
2018-05-02T03:03:17.952Z,0
2018-05-02T03:03:58.490Z,0
2018-05-02T03:04:38.998Z,0
2018-05-02T03:05:19.524Z,0
2018-05-02T03:06:00.134Z,0
2018-05-02T03:06:40.672Z,0
2018-05-02T03:07:21.192Z,0
2018-05-02T03:08:01.718Z,0
2018-05-02T03:08:42.224Z,0
2018-05-02T03:09:22.743Z,0
2018-05-02T03:10:03.284Z,0
2018-05-02T03:10:43.809Z,0
2018-05-02T03:11:24.333Z,0
2018-05-02T03:12:04.848Z,0
2018-05-02T03:12:45.364Z,0
2018-05-02T03:13:25.887Z,0
2018-05-02T03:14:06.395Z,0
2018-05-02T03:14:46.913Z,0
2018-05-02T03:15:27.420Z,0
2018-05-02T03:16:07.934Z,0
2018-05-02T03:16:48.464Z,0
2018-05-02T03:17:28.974Z,0
2018-05-02T03:18:09.498Z,0
2018-05-02T03:18:50.017Z,0
2018-05-02T03:19:30.536Z,0
2018-05-02T03:20:11.051Z,0
2018-05-02T03:20:51.562Z,0
2018-05-02T03:21:32.076Z,0
2018-05-02T03:22:12.584Z,0
2018-05-02T03:22:53.097Z,0
2018-05-02T03:23:33.616Z,0
2018-05-02T03:24:14.156Z,0
2018-05-02T03:24:54.718Z,0
2018-05-02T03:25:35.184Z,0
2018-05-02T03:26:15.697Z,0
2018-05-02T03:26:56.313Z,0
2018-05-02T03:27:36.829Z,0
2018-05-02T03:28:17.319Z,0
2018-05-02T03:28:57.838Z,0
2018-05-02T03:29:38.349Z,0
2018-05-02T03:30:18.873Z,0
2018-05-02T03:30:59.393Z,0
2018-05-02T03:31:39.917Z,0
2018-05-02T03:32:20.414Z,0
2018-05-02T03:33:00.933Z,0
2018-05-02T03:33:41.454Z,0
2018-05-02T03:34:21.980Z,0
2018-05-02T03:35:02.507Z,0
2018-05-02T03:35:43.017Z,0
2018-05-02T03:36:23.528Z,0
2018-05-02T03:37:04.262Z,0
2018-05-02T03:37:44.628Z,0
2018-05-02T03:38:25.140Z,0
2018-05-02T03:39:05.672Z,0
2018-05-02T03:39:46.187Z,0
2018-05-02T03:40:26.697Z,0
2018-05-02T03:41:07.203Z,0
2018-05-02T03:41:47.722Z,0
2018-05-02T03:42:28.231Z,0
2018-05-02T03:43:08.740Z,0
2018-05-02T03:43:49.276Z,0
2018-05-02T03:44:29.750Z,0
2018-05-02T03:45:10.280Z,0
2018-05-02T03:45:50.830Z,0
2018-05-02T03:46:31.344Z,0
2018-05-02T03:47:11.852Z,0
2018-05-02T03:47:52.368Z,0
2018-05-02T03:48:32.888Z,0
2018-05-02T03:49:13.404Z,0
2018-05-02T03:49:53.918Z,0
2018-05-02T03:50:34.423Z,0
2018-05-02T03:51:14.942Z,0
2018-05-02T03:51:55.512Z,0
2018-05-02T03:52:36.003Z,0
2018-05-02T03:53:16.509Z,0
2018-05-02T03:53:57.037Z,0
2018-05-02T03:54:37.561Z,0
2018-05-02T03:55:18.083Z,0
2018-05-02T03:55:58.600Z,0
2018-05-02T03:56:39.119Z,0
2018-05-02T03:57:19.694Z,0
2018-05-02T03:58:00.241Z,0
2018-05-02T03:58:40.733Z,0
2018-05-02T03:59:21.245Z,0
2018-05-02T04:00:01.773Z,0
2018-05-02T04:00:42.271Z,0
2018-05-02T04:01:22.800Z,0
2018-05-02T04:02:03.314Z,0
2018-05-02T04:02:43.816Z,0
2018-05-02T04:03:24.340Z,0
2018-05-02T04:04:04.859Z,0
2018-05-02T04:04:45.370Z,0
2018-05-02T04:05:25.887Z,0
2018-05-02T04:06:06.397Z,0
2018-05-02T04:06:46.912Z,0
2018-05-02T04:07:27.429Z,0
2018-05-02T04:08:07.924Z,0
2018-05-02T04:08:48.445Z,0
2018-05-02T04:09:28.968Z,0
2018-05-02T04:10:09.503Z,0
2018-05-02T04:10:50.015Z,0
2018-05-02T04:11:30.527Z,0
2018-05-02T04:12:11.033Z,0
2018-05-02T04:12:51.547Z,0
2018-05-02T04:13:32.090Z,0
2018-05-02T04:14:12.617Z,0
2018-05-02T04:14:53.115Z,0
2018-05-02T04:15:33.633Z,0
2018-05-02T04:16:14.159Z,0
2018-05-02T04:16:54.678Z,0
2018-05-02T04:17:35.180Z,0
2018-05-02T04:18:15.683Z,0
2018-05-02T04:18:56.209Z,0
2018-05-02T04:19:36.702Z,0
2018-05-02T04:20:17.226Z,0
2018-05-02T04:20:57.742Z,0
2018-05-02T04:21:38.240Z,0
2018-05-02T04:22:18.761Z,0
2018-05-02T04:22:59.278Z,0
2018-05-02T04:23:39.787Z,0
2018-05-02T04:24:20.282Z,0
2018-05-02T04:25:00.799Z,0
2018-05-02T04:25:41.351Z,0
2018-05-02T04:26:21.971Z,0
2018-05-02T04:27:02.478Z,5
2018-05-02T04:27:42.978Z,5
2018-05-02T04:28:23.500Z,5
2018-05-02T04:29:04.026Z,5
2018-05-02T04:29:44.546Z,5
2018-05-02T04:30:25.184Z,5
2018-05-02T04:31:05.701Z,5
2018-05-02T04:31:46.229Z,5
2018-05-02T04:32:26.747Z,5
2018-05-02T04:33:12.574Z,5
2018-05-02T04:33:53.140Z,5
2018-05-02T04:34:33.664Z,5
2018-05-02T04:35:14.171Z,5
2018-05-02T04:35:54.688Z,5
2018-05-02T04:36:35.201Z,5
2018-05-02T04:37:15.726Z,5
2018-05-02T04:37:56.266Z,5
2018-05-02T04:38:36.782Z,5
2018-05-02T04:39:17.319Z,5
2018-05-02T04:39:57.845Z,5
2018-05-02T04:40:38.364Z,5
2018-05-02T04:41:18.867Z,5
2018-05-02T04:41:59.375Z,5
2018-05-02T04:42:39.905Z,10
2018-05-02T04:43:20.437Z,10
2018-05-02T04:44:00.964Z,10
2018-05-02T04:44:41.475Z,10
2018-05-02T04:45:22.012Z,10
2018-05-02T04:46:02.518Z,10
2018-05-02T04:46:43.038Z,10
2018-05-02T04:47:23.558Z,10
2018-05-02T04:48:04.081Z,10
2018-05-02T04:48:44.619Z,10
2018-05-02T04:49:25.274Z,10
2018-05-02T04:50:05.784Z,10
2018-05-02T04:50:46.310Z,10
2018-05-02T04:51:26.831Z,10
2018-05-02T04:52:07.349Z,10
2018-05-02T04:52:47.920Z,10
2018-05-02T04:53:28.397Z,10
2018-05-02T04:54:08.918Z,10
2018-05-02T04:54:49.432Z,15
2018-05-02T04:55:29.945Z,15
2018-05-02T04:56:10.485Z,15
2018-05-02T04:56:50.977Z,15
2018-05-02T04:57:31.494Z,15
2018-05-02T04:58:12.009Z,15
2018-05-02T04:58:52.529Z,15
2018-05-02T04:59:33.108Z,15
2018-05-02T05:00:13.572Z,15
2018-05-02T05:00:54.094Z,15
2018-05-02T05:01:34.613Z,15
2018-05-02T05:02:15.132Z,15
2018-05-02T05:02:55.661Z,15
2018-05-02T05:03:36.193Z,15
2018-05-02T05:04:16.709Z,15
2018-05-02T05:04:57.226Z,15
2018-05-02T05:05:37.743Z,15
2018-05-02T05:06:18.255Z,15
2018-05-02T05:06:58.774Z,15
2018-05-02T05:07:39.293Z,15
2018-05-02T05:08:19.795Z,15
2018-05-02T05:09:00.309Z,20
2018-05-02T05:09:40.838Z,20
2018-05-02T05:10:21.360Z,20
2018-05-02T05:11:01.872Z,20
2018-05-02T05:11:42.397Z,20
2018-05-02T05:12:22.963Z,20
2018-05-02T05:13:03.445Z,25
2018-05-02T05:13:43.984Z,25
2018-05-02T05:14:24.520Z,25
2018-05-02T05:15:05.083Z,25
2018-05-02T05:15:45.598Z,25
2018-05-02T05:16:26.109Z,30
2018-05-02T05:17:06.617Z,30
2018-05-02T05:17:47.164Z,30
2018-05-02T05:18:27.680Z,35
2018-05-02T05:19:08.220Z,35
2018-05-02T05:19:48.735Z,35
2018-05-02T05:20:29.239Z,35
2018-05-02T05:21:09.772Z,35
2018-05-02T05:21:50.332Z,40
2018-05-02T05:22:30.888Z,40
2018-05-02T05:23:11.465Z,40
2018-05-02T05:23:52.003Z,40
2018-05-02T05:24:32.561Z,40
2018-05-02T05:25:13.084Z,40
2018-05-02T05:25:53.599Z,40
2018-05-02T05:26:34.134Z,40
2018-05-02T05:27:14.649Z,40
2018-05-02T05:27:55.158Z,40
2018-05-02T05:28:35.688Z,40
2018-05-02T05:29:16.171Z,35
2018-05-02T05:29:56.725Z,35
2018-05-02T05:30:37.232Z,35
2018-05-02T05:31:17.791Z,35
2018-05-02T05:31:58.316Z,35
2018-05-02T05:32:38.843Z,35
2018-05-02T05:33:19.361Z,35
2018-05-02T05:33:59.875Z,35
2018-05-02T05:34:40.410Z,30
2018-05-02T05:35:21.004Z,30
2018-05-02T05:36:01.445Z,30
2018-05-02T05:36:41.968Z,30
2018-05-02T05:37:22.525Z,30
2018-05-02T05:38:03.048Z,30
2018-05-02T05:38:43.574Z,30
2018-05-02T05:39:24.093Z,30
2018-05-02T05:40:04.612Z,30
2018-05-02T05:40:45.146Z,30
2018-05-02T05:41:25.689Z,30
2018-05-02T05:42:06.209Z,30
2018-05-02T05:42:46.726Z,30
2018-05-02T05:43:27.372Z,30
2018-05-02T05:44:07.786Z,30
2018-05-02T05:44:48.383Z,35
2018-05-02T05:45:28.842Z,35
2018-05-02T05:46:09.350Z,35
2018-05-02T05:46:49.867Z,35
2018-05-02T05:47:30.382Z,40
2018-05-02T05:48:10.877Z,40
2018-05-02T05:48:51.411Z,40
2018-05-02T05:49:31.932Z,45
2018-05-02T05:50:12.462Z,45
2018-05-02T05:50:52.964Z,45
2018-05-02T05:51:33.479Z,45
2018-05-02T05:52:14.015Z,45
2018-05-02T05:52:54.527Z,50
2018-05-02T05:53:35.150Z,50
2018-05-02T05:54:15.713Z,50
2018-05-02T05:54:56.170Z,50
2018-05-02T05:55:36.703Z,50
2018-05-02T05:56:17.245Z,50
2018-05-02T05:56:57.747Z,50
2018-05-02T05:57:38.274Z,50
2018-05-02T05:58:18.789Z,50
2018-05-02T05:58:59.306Z,55
2018-05-02T05:59:39.813Z,55
2018-05-02T06:00:20.320Z,60
2018-05-02T06:01:00.844Z,65
2018-05-02T06:01:41.424Z,65
2018-05-02T06:02:21.939Z,70
2018-05-02T06:03:02.464Z,70
2018-05-02T06:03:42.980Z,70
2018-05-02T06:04:23.588Z,70
2018-05-02T06:05:04.118Z,70
2018-05-02T06:05:44.645Z,70
2018-05-02T06:06:25.205Z,70
2018-05-02T06:07:06.542Z,75
2018-05-02T06:07:47.077Z,75
2018-05-02T06:08:27.591Z,75
2018-05-02T06:09:08.133Z,75
2018-05-02T06:09:48.647Z,75
2018-05-02T06:10:29.162Z,75
2018-05-02T06:11:09.685Z,75
2018-05-02T06:11:50.860Z,80
2018-05-02T06:12:31.365Z,85
2018-05-02T06:13:11.882Z,85
2018-05-02T06:13:52.402Z,90
2018-05-02T06:14:32.924Z,90
2018-05-02T06:15:13.438Z,90
2018-05-02T06:15:54.032Z,90
2018-05-02T06:16:34.544Z,90
2018-05-02T06:17:15.066Z,90
2018-05-02T06:17:55.561Z,95
2018-05-02T06:18:36.084Z,100
2018-05-02T06:19:16.573Z,110
2018-05-02T06:19:57.117Z,125
2018-05-02T06:20:37.689Z,125
2018-05-02T06:21:18.222Z,130
2018-05-02T06:21:58.730Z,130
2018-05-02T06:22:39.273Z,130
2018-05-02T06:23:19.780Z,135
2018-05-02T06:24:00.307Z,140
2018-05-02T06:24:40.829Z,140
2018-05-02T06:25:21.352Z,140
2018-05-02T06:26:01.877Z,145
2018-05-02T06:26:42.513Z,150
2018-05-02T06:27:23.063Z,155
2018-05-02T06:28:03.648Z,155
2018-05-02T06:28:44.165Z,150
2018-05-02T06:29:24.700Z,150
2018-05-02T06:30:05.241Z,150
2018-05-02T06:30:45.759Z,155
2018-05-02T06:33:17.181Z,145
2018-05-02T06:33:57.714Z,140
2018-05-02T06:34:38.229Z,135
2018-05-02T06:35:18.748Z,130
2018-05-02T06:35:59.296Z,130
2018-05-02T06:36:39.806Z,125
2018-05-02T06:37:20.339Z,125
2018-05-02T06:38:00.894Z,125
2018-05-02T06:38:41.405Z,130
2018-05-02T06:39:21.942Z,135
2018-05-02T06:40:02.463Z,135
2018-05-02T06:40:42.991Z,140
2018-05-02T06:41:23.513Z,145
2018-05-02T06:42:04.046Z,145
2018-05-02T06:42:44.642Z,145
2018-05-02T06:43:25.144Z,145
2018-05-02T06:44:05.649Z,145
2018-05-02T06:44:46.170Z,145
2018-05-02T06:45:26.720Z,140
2018-05-02T06:46:07.224Z,140
2018-05-02T06:46:47.734Z,140
2018-05-02T06:47:28.248Z,135
2018-05-02T06:48:08.784Z,130
2018-05-02T06:48:49.312Z,130
2018-05-02T06:49:29.841Z,130
2018-05-02T06:50:10.348Z,130
2018-05-02T06:50:50.865Z,130
2018-05-02T06:51:31.375Z,130
2018-05-02T06:52:11.880Z,135
2018-05-02T06:52:52.396Z,135
2018-05-02T06:53:32.912Z,125
2018-05-02T06:54:13.439Z,125
2018-05-02T06:54:53.948Z,120
2018-05-02T06:55:34.470Z,115
2018-05-02T06:56:15.000Z,115
2018-05-02T06:56:55.498Z,110
2018-05-02T06:57:36.027Z,110
2018-05-02T06:58:16.601Z,110
2018-05-02T06:58:57.109Z,105
2018-05-02T06:59:37.624Z,110
2018-05-02T07:00:18.191Z,115
2018-05-02T07:00:58.701Z,115
2018-05-02T07:01:39.225Z,115
2018-05-02T07:02:19.754Z,115
2018-05-02T07:03:00.261Z,120
2018-05-02T07:03:40.822Z,120
2018-05-02T07:04:21.342Z,125
2018-05-02T07:05:01.856Z,130
2018-05-02T07:05:42.477Z,135
2018-05-02T07:06:22.980Z,135
2018-05-02T07:07:03.488Z,145
2018-05-02T07:07:44.010Z,155
2018-05-02T07:08:24.526Z,155
2018-05-02T07:09:05.040Z,165
2018-05-02T07:09:45.562Z,185
2018-05-02T07:10:26.091Z,195
2018-05-02T07:11:06.650Z,185
2018-05-02T07:11:47.147Z,185
2018-05-02T07:12:27.659Z,180
2018-05-02T07:13:08.185Z,185
2018-05-02T07:13:48.707Z,190
2018-05-02T07:14:29.224Z,190
2018-05-02T07:15:09.729Z,200
2018-05-02T07:15:50.304Z,200
2018-05-02T07:16:30.828Z,205
2018-05-02T07:17:11.346Z,200
2018-05-02T07:17:51.856Z,200
2018-05-02T07:18:32.363Z,205
2018-05-02T07:19:12.891Z,195
2018-05-02T07:19:53.440Z,195
2018-05-02T07:20:33.955Z,205
2018-05-02T07:21:14.478Z,215
2018-05-02T07:21:54.974Z,230
2018-05-02T07:22:35.569Z,225
2018-05-02T07:23:16.063Z,220
2018-05-02T07:23:56.611Z,210
2018-05-02T07:24:37.105Z,205
2018-05-02T07:25:17.627Z,210
2018-05-02T07:25:58.161Z,215
2018-05-02T07:26:38.665Z,225
2018-05-02T07:27:19.173Z,245
2018-05-02T07:27:59.691Z,235
2018-05-02T07:28:40.187Z,235
2018-05-02T07:29:20.711Z,230
2018-05-02T07:30:01.237Z,230
2018-05-02T07:30:41.757Z,240
2018-05-02T07:31:22.283Z,240
2018-05-02T07:32:02.810Z,230
2018-05-02T07:32:43.405Z,225
2018-05-02T07:33:23.915Z,215
2018-05-02T07:34:04.432Z,220
2018-05-02T07:34:44.988Z,215
2018-05-02T07:35:25.485Z,215
2018-05-02T07:36:06.012Z,210
2018-05-02T07:36:46.523Z,210
2018-05-02T07:37:27.844Z,210
2018-05-02T07:38:08.357Z,230
2018-05-02T07:38:48.913Z,255
2018-05-02T07:39:29.441Z,270
2018-05-02T07:40:09.939Z,240
2018-05-02T07:40:50.577Z,230
2018-05-02T07:41:31.015Z,225
2018-05-02T07:42:11.628Z,220
2018-05-02T07:42:52.042Z,215
2018-05-02T07:43:32.658Z,225
2018-05-02T07:44:13.179Z,225
2018-05-02T07:44:53.702Z,215
2018-05-02T07:45:34.235Z,210
2018-05-02T07:46:14.742Z,220
2018-05-02T07:46:55.267Z,230
2018-05-02T07:47:35.785Z,220
2018-05-02T07:48:16.337Z,220
2018-05-02T07:48:58.437Z,225
2018-05-02T07:49:38.981Z,225
2018-05-02T07:50:19.517Z,220
2018-05-02T07:51:00.049Z,215
2018-05-02T07:51:40.643Z,215
2018-05-02T07:52:21.168Z,215
2018-05-02T07:53:01.854Z,215
2018-05-02T07:53:42.405Z,220
2018-05-02T07:54:22.882Z,220
2018-05-02T07:55:03.403Z,220
2018-05-02T07:55:44.011Z,225
2018-05-02T07:56:24.545Z,215
2018-05-02T07:57:05.099Z,215
2018-05-02T07:57:45.527Z,220
2018-05-02T07:58:26.043Z,230
2018-05-02T07:59:06.583Z,225
2018-05-02T07:59:47.106Z,235
2018-05-02T08:00:27.619Z,230
2018-05-02T08:01:08.149Z,230
2018-05-02T08:01:48.701Z,225
2018-05-02T08:02:29.242Z,225
2018-05-02T08:03:09.798Z,220
2018-05-02T08:03:50.371Z,220
2018-05-02T08:04:30.885Z,225
2018-05-02T08:05:11.392Z,230
2018-05-02T08:05:51.904Z,230
2018-05-02T08:06:32.424Z,235
2018-05-02T08:07:12.946Z,230
2018-05-02T08:09:33.092Z,225
2018-05-02T08:10:13.630Z,220
2018-05-02T08:10:54.131Z,205
2018-05-02T08:11:34.645Z,200
2018-05-02T08:12:15.169Z,200
2018-05-02T08:12:55.688Z,200
2018-05-02T08:13:36.237Z,200
2018-05-02T08:14:16.728Z,190
2018-05-02T08:14:57.246Z,190
2018-05-02T08:15:37.777Z,190
2018-05-02T08:16:18.302Z,190
2018-05-02T08:16:58.817Z,185
2018-05-02T08:17:39.397Z,185
2018-05-02T08:18:19.896Z,185
2018-05-02T08:19:00.573Z,185
2018-05-02T08:19:41.124Z,190
2018-05-02T08:20:21.654Z,180
2018-05-02T08:21:02.220Z,180
2018-05-02T08:21:42.795Z,175
2018-05-02T08:22:23.270Z,175
2018-05-02T08:23:03.775Z,180
2018-05-02T08:23:44.313Z,180
2018-05-02T08:24:24.831Z,185
2018-05-02T08:25:05.361Z,185
2018-05-02T08:25:45.903Z,190
2018-05-02T08:26:26.419Z,190
2018-05-02T08:27:07.228Z,190
2018-05-02T08:27:47.455Z,195
2018-05-02T08:28:27.958Z,195
2018-05-02T08:29:08.445Z,190
2018-05-02T08:29:48.963Z,190
2018-05-02T08:30:29.455Z,190
2018-05-02T08:31:09.972Z,185
2018-05-02T08:31:50.600Z,185
2018-05-02T08:32:31.238Z,185
2018-05-02T08:33:11.767Z,190
2018-05-02T08:33:52.280Z,190
2018-05-02T08:34:32.789Z,195
2018-05-02T08:35:13.308Z,200
2018-05-02T08:35:53.828Z,200
2018-05-02T08:36:34.329Z,195
2018-05-02T08:37:14.859Z,195
2018-05-02T08:37:55.403Z,190
2018-05-02T08:38:35.926Z,185
2018-05-02T08:39:16.613Z,180
2018-05-02T08:39:57.130Z,175
2018-05-02T08:40:37.637Z,175
2018-05-02T08:41:18.208Z,175
2018-05-02T08:41:58.687Z,170
2018-05-02T08:42:39.199Z,170
2018-05-02T08:43:19.703Z,170
2018-05-02T08:44:00.209Z,170
2018-05-02T08:44:40.745Z,165
2018-05-02T08:45:21.266Z,165
2018-05-02T08:46:01.781Z,165
2018-05-02T08:46:42.305Z,165
2018-05-02T08:47:22.826Z,170
2018-05-02T08:48:03.348Z,165
2018-05-02T08:48:43.865Z,160
2018-05-02T08:49:24.382Z,155
2018-05-02T08:50:04.913Z,155
2018-05-02T08:50:45.434Z,155
2018-05-02T08:51:25.959Z,155
2018-05-02T08:52:06.474Z,155
2018-05-02T08:52:47.043Z,160
2018-05-02T08:53:27.575Z,160
2018-05-02T08:54:08.208Z,165
2018-05-02T08:54:48.642Z,170
2018-05-02T08:55:29.157Z,170
2018-05-02T08:56:09.684Z,165
2018-05-02T08:56:50.219Z,170
2018-05-02T08:57:30.840Z,170
2018-05-02T08:58:11.254Z,170
2018-05-02T08:58:51.776Z,165
2018-05-02T08:59:32.301Z,160
2018-05-02T09:00:12.827Z,160
2018-05-02T09:00:53.379Z,155
2018-05-02T09:01:33.932Z,155
2018-05-02T09:02:14.462Z,150
2018-05-02T09:02:54.968Z,150
2018-05-02T09:03:35.488Z,155
2018-05-02T09:04:16.029Z,160
2018-05-02T09:04:56.536Z,160
2018-05-02T09:05:37.086Z,160
2018-05-02T09:06:17.628Z,170
2018-05-02T09:06:58.156Z,180
2018-05-02T09:07:38.698Z,190
2018-05-02T09:08:19.222Z,185
2018-05-02T09:08:59.787Z,185
2018-05-02T09:09:40.272Z,190
2018-05-02T09:10:20.787Z,190
2018-05-02T09:11:01.311Z,190
2018-05-02T09:11:41.833Z,190
2018-05-02T09:12:22.375Z,190
2018-05-02T09:13:02.924Z,185
2018-05-02T09:13:43.423Z,185
2018-05-02T09:14:23.951Z,180
2018-05-02T09:15:04.533Z,180
2018-05-02T09:15:45.027Z,175
2018-05-02T09:16:25.548Z,175
2018-05-02T09:17:06.068Z,180
2018-05-02T09:17:46.590Z,180
2018-05-02T09:18:27.082Z,180
2018-05-02T09:19:07.693Z,180
2018-05-02T09:19:48.251Z,180
2018-05-02T09:20:28.792Z,180
2018-05-02T09:21:09.311Z,180
2018-05-02T09:21:49.813Z,180
2018-05-02T09:22:30.367Z,180
2018-05-02T09:23:10.924Z,180
2018-05-02T09:23:51.435Z,180
2018-05-02T09:24:32.015Z,180
2018-05-02T09:25:12.656Z,180
2018-05-02T09:25:53.147Z,180
2018-05-02T09:26:33.681Z,180
2018-05-02T09:27:14.197Z,180
2018-05-02T09:27:54.709Z,180
2018-05-02T09:28:35.227Z,180
2018-05-02T09:29:15.718Z,180
2018-05-02T09:29:56.233Z,180
2018-05-02T09:30:36.769Z,185
2018-05-02T09:31:17.307Z,185
2018-05-02T09:31:57.794Z,185
2018-05-02T09:32:38.428Z,190
2018-05-02T09:33:18.968Z,190
2018-05-02T09:33:59.463Z,190
2018-05-02T09:34:39.975Z,190
2018-05-02T09:35:20.478Z,185
2018-05-02T09:36:01.066Z,185
2018-05-02T09:36:41.533Z,185
2018-05-02T09:37:22.065Z,185
2018-05-02T09:38:02.589Z,185
2018-05-02T09:38:43.128Z,185
2018-05-02T09:39:23.636Z,185
2018-05-02T09:40:04.162Z,180
2018-05-02T09:40:44.672Z,180
2018-05-02T09:41:25.185Z,175
2018-05-02T09:42:05.703Z,170
2018-05-02T09:42:46.215Z,165
2018-05-02T09:43:26.745Z,165
2018-05-02T09:44:07.293Z,165
2018-05-02T09:44:47.801Z,165
2018-05-02T09:45:28.320Z,165
2018-05-02T09:46:08.887Z,155
2018-05-02T09:46:49.401Z,150
2018-05-02T09:47:29.989Z,155
2018-05-02T09:48:10.446Z,155